Time;durP1;ratioP1;P1;durP2;ratioP2;P2;SDS_P1;SDS_P2;PMS_P1;PMS_P2;Temp;Humidity;BMP_temperature;BMP_pressure;BME280_temperature;BME280_humidity;BME280_pressure;Samples;Min_cycle;Max_cycle;Signal;HPM_P1;HPM_P2
2021/05/03 00:01:00;;;;;;;17.55;6.25;;;3.70;99.90;;;;;;4991946;28;20109;-66
2021/05/03 00:03:25;;;;;;;18.17;5.53;;;3.70;99.90;;;;;;4993471;28;20081;-63
2021/05/03 00:05:56;;;;;;;15.93;5.90;;;3.60;99.90;;;;;;4993617;28;20377;-64
2021/05/03 00:08:25;;;;;;;17.23;6.47;;;3.50;99.90;;;;;;4993447;28;20022;-66
2021/05/03 00:10:52;;;;;;;16.98;6.28;;;3.60;99.90;;;;;;4992079;28;20030;-66
2021/05/03 00:13:18;;;;;;;16.35;6.13;;;3.50;99.90;;;;;;4992031;28;20573;-65
2021/05/03 00:15:43;;;;;;;18.88;6.53;;;3.50;99.90;;;;;;4993344;28;20022;-66
2021/05/03 00:18:09;;;;;;;17.60;6.85;;;3.40;99.90;;;;;;4993194;28;20402;-65
2021/05/03 00:20:35;;;;;;;16.48;6.10;;;3.40;99.90;;;;;;4992999;28;20050;-66
2021/05/03 00:23:01;;;;;;;16.60;6.40;;;3.30;99.90;;;;;;4991999;28;20026;-65
2021/05/03 00:25:27;;;;;;;16.70;6.65;;;;;;;;;;4991862;28;20023;-66
2021/05/03 00:27:53;;;;;;;18.20;6.78;;;;;;;;;;4993135;28;20138;-67
2021/05/03 00:30:19;;;;;;;15.30;6.20;;;;;;;;;;4992948;28;20030;-64
2021/05/03 00:32:45;;;;;;;16.83;6.40;;;;;;;;;;4991730;28;20018;-67
2021/05/03 00:35:12;;;;;;;16.33;5.82;;;;;;;;;;4991752;28;20034;-66
2021/05/03 00:37:38;;;;;;;17.88;6.38;;;;;;;;;;4992981;28;20046;-66
2021/05/03 00:40:07;;;;;;;17.42;6.45;;;;;;;;;;4992157;28;20022;-65
2021/05/03 00:42:33;;;;;;;20.23;7.03;;;;;;;;;;4993781;28;20037;-65
2021/05/03 00:45:05;;;;;;;18.13;6.18;;;;;;;;;;4994009;28;20037;-66
2021/05/03 00:47:32;;;;;;;17.65;6.38;;;;;;;;;;4993067;28;20033;-66
2021/05/03 00:49:58;;;;;;;16.17;6.15;;;;;;;;;;5023989;23;20116;-58
2021/05/03 00:52:25;;;;;;;17.50;5.95;;;;;;;;;;5013496;28;20026;-61
2021/05/03 00:54:51;;;;;;;16.17;6.18;;;;;;;;;;5013735;28;20030;-59
2021/05/03 00:57:17;;;;;;;19.45;7.10;;;;;;;;;;5013646;28;20030;-61
2021/05/03 00:59:43;;;;;;;17.85;7.05;;;;;;;;;;5013474;28;20026;-62
2021/05/03 01:02:09;;;;;;;17.95;6.57;;;;;;;;;;5013813;28;20022;-58
2021/05/03 01:04:35;;;;;;;17.65;6.35;;;;;;;;;;5013656;28;20030;-60
2021/05/03 01:07:01;;;;;;;18.80;6.22;;;;;;;;;;5013608;28;20072;-60
2021/05/03 01:09:27;;;;;;;17.20;6.43;;;;;;;;;;5012178;28;20508;-60
2021/05/03 01:11:53;;;;;;;18.20;6.60;;;;;;;;;;5013496;28;20040;-60
2021/05/03 01:14:19;;;;;;;19.02;6.45;;;;;;;;;;5013301;28;20042;-58
2021/05/03 01:16:45;;;;;;;17.95;6.95;;;;;;;;;;5013433;28;20080;-62
2021/05/03 01:19:11;;;;;;;17.50;6.35;;;;;;;;;;5011733;28;20026;-62
2021/05/03 01:21:37;;;;;;;17.00;6.70;;;;;;;;;;5012044;28;20049;-61
2021/05/03 01:24:03;;;;;;;19.15;6.75;;;;;;;;;;5011864;28;20054;-61
2021/05/03 01:26:29;;;;;;;17.92;6.97;;;;;;;;;;5013332;28;20478;-60
2021/05/03 01:28:55;;;;;;;19.08;6.63;;;;;;;;;;5011658;28;20045;-59
2021/05/03 01:31:21;;;;;;;18.90;6.30;;;;;;;;;;5013241;28;20402;-61
2021/05/03 01:33:47;;;;;;;22.02;9.23;;;;;;;;;;5013176;28;20042;-59
2021/05/03 01:36:13;;;;;;;16.23;6.20;;;;;;;;;;5013117;28;20037;-58
2021/05/03 01:38:39;;;;;;;18.00;7.50;;;;;;;;;;5013085;28;20026;-59
2021/05/03 01:41:05;;;;;;;16.75;6.28;;;;;;;;;;5013081;28;20053;-58
2021/05/03 01:43:31;;;;;;;16.83;6.40;;;;;;;;;;5012902;28;20021;-58
2021/05/03 01:45:59;;;;;;;17.60;6.88;;;;;;;;;;5013068;28;20375;-58
2021/05/03 01:48:29;;;;;;;17.48;6.78;;;;;;;;;;5012841;28;20049;-58
2021/05/03 01:50:55;;;;;;;17.73;7.07;;;;;;;;;;5012467;28;20116;-61
2021/05/03 01:53:21;;;;;;;16.65;6.97;;;;;;;;;;5012735;28;20390;-61
2021/05/03 01:55:49;;;;;;;17.55;6.95;;;;;;;;;;5010974;28;20029;-63
2021/05/03 01:58:15;;;;;;;19.70;7.32;;;;;;;;;;5011264;28;20026;-58
2021/05/03 02:00:41;;;;;;;17.95;6.72;;;;;;;;;;5012419;28;20155;-61
2021/05/03 02:03:16;;;;;;;18.10;7.47;;;;;;;;;;5011369;28;20033;-61
2021/05/03 02:05:42;;;;;;;19.17;6.85;;;;;;;;;;5012610;28;20022;-56
2021/05/03 02:08:08;;;;;;;17.38;6.47;;;;;;;;;;5011327;28;20029;-58
2021/05/03 02:10:34;;;;;;;17.42;6.60;;;;;;;;;;5011124;28;20034;-59
2021/05/03 02:13:01;;;;;;;18.25;6.53;;;;;;;;;;5012479;28;20500;-59
2021/05/03 02:15:29;;;;;;;18.95;7.45;;;;;;;;;;5011230;28;20032;-58
2021/05/03 02:17:55;;;;;;;19.48;6.68;;;;;;;;;;5011340;28;20072;-59
2021/05/03 02:20:21;;;;;;;21.50;7.43;;;;;;;;;;5012351;28;20033;-60
2021/05/03 02:22:47;;;;;;;16.38;6.65;;;;;;;;;;5011022;28;20018;-59
2021/05/03 02:25:14;;;;;;;16.13;6.13;;;;;;;;;;5011270;28;20099;-61
2021/05/03 02:27:40;;;;;;;17.48;6.82;;;;;;;;;;5012475;28;20037;-59
2021/05/03 02:30:06;;;;;;;19.17;8.30;;;;;;;;;;5012202;28;20029;-60
2021/05/03 02:32:36;;;;;;;19.52;6.65;;;;;;;;;;5012241;28;20030;-59
2021/05/03 02:35:03;;;;;;;17.98;7.43;;;;;;;;;;5010945;28;20026;-59
2021/05/03 02:37:29;;;;;;;18.23;7.32;;;;;;;;;;5012203;28;20022;-55
2021/05/03 02:39:55;;;;;;;20.35;7.53;;;;;;;;;;5011923;28;20033;-59
2021/05/03 02:42:21;;;;;;;18.58;7.43;;;;;;;;;;5010860;28;20022;-57
2021/05/03 02:44:47;;;;;;;18.92;7.68;;;;;;;;;;5010924;28;20057;-59
2021/05/03 02:47:13;;;;;;;20.92;8.48;;;;;;;;;;5012217;28;20105;-57
2021/05/03 02:49:39;;;;;;;17.92;6.78;;;;;;;;;;5011835;28;20127;-61
2021/05/03 02:52:05;;;;;;;19.20;7.22;;;;;;;;;;5012053;28;20034;-60
2021/05/03 02:54:31;;;;;;;20.25;7.70;;;;;;;;;;5010764;28;20022;-59
2021/05/03 02:56:57;;;;;;;18.30;7.68;;;;;;;;;;5012048;28;20022;-59
2021/05/03 02:59:23;;;;;;;17.70;7.57;;;;;;;;;;5011846;28;20022;-59
2021/05/03 03:01:49;;;;;;;21.52;9.55;;;;;;;;;;5012122;28;20431;-60
2021/05/03 03:04:16;;;;;;;20.80;7.70;;;;;;;;;;5011038;28;20065;-62
2021/05/03 03:06:42;;;;;;;18.80;7.97;;;;;;;;;;5012235;28;20029;-61
2021/05/03 03:09:09;;;;;;;21.88;7.85;;;;;;;;;;5013851;28;20080;-61
2021/05/03 03:11:35;;;;;;;18.67;7.95;;;;;;;;;;5015717;28;20096;-61
2021/05/03 03:14:02;;;;;;;18.92;8.20;;;;;;;;;;5014325;28;20125;-60
2021/05/03 03:16:28;;;;;;;19.75;6.90;;;;;;;;;;5015530;28;20521;-58
2021/05/03 03:18:59;;;;;;;18.20;7.65;;;;;;;;;;5015410;28;20025;-61
2021/05/03 03:21:25;;;;;;;18.27;8.55;;;;;;;;;;5014440;28;20022;-56
2021/05/03 03:23:52;;;;;;;20.30;9.68;;;;;;;;;;5015571;28;20026;-63
2021/05/03 03:26:18;;;;;;;18.83;7.93;;;;;;;;;;5015407;28;20033;-62
2021/05/03 03:28:45;;;;;;;18.65;7.90;;;;;;;;;;5015252;28;20021;-60
2021/05/03 03:31:11;;;;;;;19.77;8.27;;;;;;;;;;5013890;28;20389;-60
2021/05/03 03:33:37;;;;;;;18.10;8.05;;;;;;;;;;5013828;28;20041;-59
2021/05/03 03:36:03;;;;;;;21.70;8.40;;;;;;;;;;5015241;28;20026;-61
2021/05/03 03:38:30;;;;;;;19.00;7.75;;;;;;;;;;5015372;28;20371;-60
2021/05/03 03:40:56;;;;;;;17.73;7.72;;;;;;;;;;5013443;28;20025;-59
2021/05/03 03:43:22;;;;;;;20.95;8.38;;;;;;;;;;5015176;28;20157;-60
2021/05/03 03:45:48;;;;;;;21.13;8.48;;;;;;;;;;5014968;28;20029;-59
2021/05/03 03:48:14;;;;;;;20.27;8.30;;;;;;;;;;5014731;28;20018;-58
2021/05/03 03:50:40;;;;;;;18.30;7.97;;;;;;;;;;5013743;28;20482;-61
2021/05/03 03:53:06;;;;;;;21.65;8.90;;;;;;;;;;5013660;28;20022;-60
2021/05/03 03:55:32;;;;;;;20.80;9.60;;;;;;;;;;5013690;28;20080;-60
2021/05/03 03:57:58;;;;;;;18.70;8.35;;;;;;;;;;5014363;28;20033;-61
2021/05/03 04:00:24;;;;;;;21.38;7.72;;;;;;;;;;5014342;28;20062;-58
2021/05/03 04:02:51;;;;;;;23.65;9.38;;;;;;;;;;5014791;28;20049;-59
2021/05/03 04:05:38;;;;;;;20.92;7.97;;;;;;;;;;5015055;28;20030;-61
2021/05/03 04:08:12;;;;;;;20.33;8.20;;;;;;;;;;5013961;28;20052;-61
2021/05/03 04:11:08;;;;;;;19.45;8.50;;;;;;;;;;5014382;28;20048;-59
2021/05/03 04:14:05;;;;;;;21.27;9.27;;;;;;;;;;5014612;28;20032;-61
2021/05/03 04:27:36;;;;;;;19.40;8.85;;;;;;;;;;5011396;28;20022;-59
2021/05/03 04:30:04;;;;;;;19.38;8.18;;;;;;;;;;5013872;28;20045;-57
2021/05/03 04:32:30;;;;;;;22.77;9.18;;;;;;;;;;5014323;28;20026;-58
2021/05/03 04:34:56;;;;;;;19.65;9.10;;;;;;;;;;5013115;28;20301;-61
2021/05/03 04:37:22;;;;;;;19.90;9.63;;;;;;;;;;5013206;28;20037;-60
2021/05/03 04:39:48;;;;;;;21.75;8.80;;;;;;;;;;5013814;28;20101;-59
2021/05/03 04:42:14;;;;;;;20.80;9.07;;;;;;;;;;5012713;28;20071;-60
2021/05/03 04:44:40;;;;;;;20.63;9.52;;;;;;;;;;5013822;28;20478;-61
2021/05/03 04:47:05;;;;;;;19.65;8.95;;;3.20;99.90;;;;;;5012573;28;20030;-60
2021/05/03 04:49:31;;;;;;;21.80;9.38;;;3.60;99.90;;;;;;5011944;28;20087;-60
2021/05/03 04:51:57;;;;;;;20.13;9.07;;;3.70;99.90;;;;;;5013996;28;20022;-59
2021/05/03 04:54:22;;;;;;;20.15;8.55;;;3.70;99.90;;;;;;5012280;28;20022;-59
2021/05/03 04:56:48;;;;;;;19.80;9.23;;;3.80;99.90;;;;;;5014149;28;20018;-61
2021/05/03 04:59:13;;;;;;;20.35;8.85;;;3.80;99.90;;;;;;5013795;28;20406;-59
2021/05/03 05:01:39;;;;;;;20.30;9.13;;;3.90;99.90;;;;;;5013862;28;20097;-60
2021/05/03 05:04:05;;;;;;;19.23;9.27;;;3.90;99.90;;;;;;5013418;28;20501;-60
2021/05/03 05:06:30;;;;;;;21.52;9.68;;;4.00;99.90;;;;;;5012101;28;20029;-59
2021/05/03 05:08:56;;;;;;;22.52;10.93;;;4.00;99.90;;;;;;5011822;28;20038;-61
2021/05/03 05:11:22;;;;;;;20.98;9.60;;;4.00;99.90;;;;;;5013476;28;20022;-59
2021/05/03 05:13:47;;;;;;;20.90;9.27;;;3.90;99.90;;;;;;5012770;28;20022;-62
2021/05/03 05:16:13;;;;;;;21.67;10.60;;;3.90;99.90;;;;;;5011838;28;20057;-61
2021/05/03 05:18:39;;;;;;;19.55;9.05;;;3.80;99.90;;;;;;5012869;28;20018;-58
2021/05/03 05:21:05;;;;;;;22.73;9.93;;;3.80;99.90;;;;;;5012809;28;20034;-59
2021/05/03 05:23:30;;;;;;;20.65;9.57;;;3.80;99.90;;;;;;5011250;28;20036;-61
2021/05/03 05:25:56;;;;;;;20.90;9.88;;;4.00;99.90;;;;;;5013157;28;20029;-61
2021/05/03 05:28:22;;;;;;;21.27;9.55;;;4.00;99.90;;;;;;5012974;28;20025;-60
2021/05/03 05:30:47;;;;;;;19.08;9.20;;;4.20;99.90;;;;;;5011118;28;20030;-61
2021/05/03 05:33:13;;;;;;;19.88;9.70;;;4.30;99.90;;;;;;5012644;28;20109;-62
2021/05/03 05:35:39;;;;;;;20.33;9.80;;;4.30;99.90;;;;;;5012890;28;20363;-61
2021/05/03 05:38:04;;;;;;;22.02;10.57;;;4.40;99.90;;;;;;5012616;28;20040;-61
2021/05/03 05:40:30;;;;;;;19.13;9.07;;;4.50;99.90;;;;;;5010945;28;20034;-60
2021/05/03 05:42:55;;;;;;;20.63;9.63;;;4.60;99.90;;;;;;5012594;28;20026;-57
2021/05/03 05:45:21;;;;;;;20.63;10.35;;;4.60;99.90;;;;;;5010944;28;20115;-59
2021/05/03 05:47:47;;;;;;;20.63;9.30;;;4.70;99.90;;;;;;5011360;28;20084;-63
2021/05/03 05:50:12;;;;;;;19.27;10.05;;;4.70;99.90;;;;;;5012081;28;20200;-59
2021/05/03 05:52:38;;;;;;;20.58;9.60;;;4.80;99.90;;;;;;5011527;28;20541;-60
2021/05/03 05:55:04;;;;;;;20.52;10.15;;;4.90;99.90;;;;;;5012574;28;20030;-62
2021/05/03 05:57:30;;;;;;;20.77;9.85;;;4.90;99.90;;;;;;5013191;28;20044;-59
2021/05/03 05:59:55;;;;;;;23.83;10.23;;;5.00;99.90;;;;;;5010625;28;20030;-60
2021/05/03 06:02:21;;;;;;;22.27;9.43;;;5.00;99.90;;;;;;5011237;28;20120;-62
2021/05/03 06:04:47;;;;;;;22.08;10.07;;;5.10;99.90;;;;;;5012490;28;20120;-60
2021/05/03 06:07:12;;;;;;;22.92;10.13;;;5.20;99.90;;;;;;5010761;28;20061;-61
2021/05/03 06:09:38;;;;;;;24.00;10.98;;;5.30;99.90;;;;;;5012129;28;20092;-57
2021/05/03 06:12:04;;;;;;;24.30;10.13;;;5.50;99.90;;;;;;5012310;28;20069;-58
2021/05/03 06:14:29;;;;;;;20.38;10.18;;;5.50;99.90;;;;;;5012265;28;20084;-61
2021/05/03 06:16:55;;;;;;;20.35;9.55;;;;;;;;;;5012177;28;20506;-59
2021/05/03 06:19:21;;;;;;;21.15;9.80;;;;;;;;;;5011969;28;20033;-61
2021/05/03 06:21:47;;;;;;;24.00;10.98;;;;;;;;;;5012011;28;20045;-59
2021/05/03 06:24:13;;;;;;;20.30;9.23;;;;;;;;;;5011429;28;20401;-62
2021/05/03 06:26:39;;;;;;;22.15;10.23;;;;;;;;;;5012035;28;20039;-58
2021/05/03 06:29:05;;;;;;;20.50;9.00;;;;;;;;;;5010674;28;20474;-60
2021/05/03 06:31:32;;;;;;;20.58;9.23;;;;;;;;;;5010859;28;20034;-61
2021/05/03 06:33:58;;;;;;;18.98;9.15;;;;;;;;;;5010723;28;20113;-60
2021/05/03 06:36:24;;;;;;;23.45;9.45;;;;;;;;;;5010381;28;20077;-61
2021/05/03 06:38:50;;;;;;;17.83;7.47;;;;;;;;;;5011604;28;20110;-60
2021/05/03 06:41:16;;;;;;;17.20;6.70;;;;;;;;;;5010628;28;20028;-60
2021/05/03 06:43:42;;;;;;;18.23;8.73;;;;;;;;;;5014086;28;20026;-61
2021/05/03 06:46:08;;;;;;;20.52;8.60;;;;;;;;;;5014801;28;20031;-61
2021/05/03 06:48:35;;;;;;;19.63;8.57;;;;;;;;;;5016289;28;20132;-61
2021/05/03 06:51:01;;;;;;;20.30;8.55;;;;;;;;;;5044226;23;20049;-62
2021/05/03 06:53:27;;;;;;;19.17;8.43;;;;;;;;;;5036476;28;20026;-64
2021/05/03 06:55:53;;;;;;;20.95;8.38;;;;;;;;;;5035364;28;20486;-64
2021/05/03 06:58:19;;;;;;;20.15;8.93;;;;;;;;;;5037132;28;20022;-64
2021/05/03 07:00:45;;;;;;;18.52;8.00;;;;;;;;;;5036283;28;20397;-62
2021/05/03 07:03:12;;;;;;;17.75;8.23;;;;;;;;;;5036094;28;20025;-64
2021/05/03 07:05:38;;;;;;;18.35;8.15;;;;;;;;;;5034652;28;20083;-63
2021/05/03 07:08:05;;;;;;;17.98;8.38;;;;;;;;;;5034932;28;20048;-65
2021/05/03 07:10:31;;;;;;;19.60;8.50;;;;;;;;;;5034505;28;20412;-65
2021/05/03 07:12:58;;;;;;;19.23;8.13;;;;;;;;;;5031783;28;20059;-65
2021/05/03 07:15:24;;;;;;;18.10;7.82;;;;;;;;;;5042033;28;20032;-65
2021/05/03 07:17:50;;;;;;;17.58;7.88;;;;;;;;;;5052367;28;20017;-64
2021/05/03 07:20:16;;;;;;;20.70;7.90;;;;;;;;;;5051613;28;20021;-64
2021/05/03 07:22:43;;;;;;;18.23;8.25;;;;;;;;;;5035640;28;20059;-64
2021/05/03 07:25:10;;;;;;;18.13;7.88;;;;;;;;;;5035497;28;20104;-65
2021/05/03 07:27:36;;;;;;;21.52;9.20;;;;;;;;;;5035432;28;20478;-62
2021/05/03 07:30:04;;;;;;;19.00;8.00;;;;;;;;;;5048807;28;20032;-64
2021/05/03 07:32:30;;;;;;;20.80;8.10;;;;;;;;;;5055457;28;20396;-64
2021/05/03 07:34:56;;;;;;;18.52;8.65;;;;;;;;;;5054482;28;20021;-62
2021/05/03 07:37:22;;;;;;;19.77;8.60;;;;;;;;;;5053678;28;20029;-64
2021/05/03 07:39:48;;;;;;;19.25;8.20;;;;;;;;;;5053801;28;20109;-64
2021/05/03 07:42:14;;;;;;;18.35;8.93;;;;;;;;;;5054866;28;20033;-64
2021/05/03 07:44:40;;;;;;;16.70;7.35;;;;;;;;;;5055027;28;20061;-65
2021/05/03 07:47:06;;;;;;;20.52;8.15;;;;;;;;;;5040682;28;20030;-64
2021/05/03 07:49:33;;;;;;;18.25;8.00;;;;;;;;;;5034844;28;20021;-64
2021/05/03 07:51:59;;;;;;;20.33;8.38;;;;;;;;;;5034452;28;20116;-64
2021/05/03 07:54:25;;;;;;;17.90;8.80;;;;;;;;;;5032973;28;20057;-64
2021/05/03 07:56:51;;;;;;;17.42;8.57;;;;;;;;;;5035024;28;20048;-66
2021/05/03 07:59:17;;;;;;;16.52;8.25;;;;;;;;;;5034947;28;20477;-64
2021/05/03 08:01:43;;;;;;;15.82;8.38;;;;;;;;;;5034929;28;20488;-63
2021/05/03 08:04:09;;;;;;;16.92;7.97;;;;;;;;;;5034924;28;20025;-64
2021/05/03 08:06:35;;;;;;;18.92;7.82;;;;;;;;;;5034949;28;20056;-63
2021/05/03 08:09:05;;;;;;;17.65;7.97;;;;;;;;;;5033203;28;20021;-65
2021/05/03 08:11:31;;;;;;;16.30;7.78;;;;;;;;;;5033766;28;20052;-64
2021/05/03 08:13:57;;;;;;;20.58;8.02;;;;;;;;;;5034744;28;20060;-63
2021/05/03 08:16:25;;;;;;;18.75;8.95;;;;;;;;;;5033841;28;20022;-63
2021/05/03 08:18:51;;;;;;;18.07;9.00;;;;;;;;;;5034644;28;20109;-61
2021/05/03 08:21:17;;;;;;;20.05;9.45;;;;;;;;;;5033575;28;20057;-60
2021/05/03 08:23:43;;;;;;;17.88;8.07;;;;;;;;;;5034769;28;20076;-62
2021/05/03 08:26:10;;;;;;;16.67;9.07;;;;;;;;;;5034244;28;20060;-63
2021/05/03 08:28:36;;;;;;;16.83;8.48;;;;;;;;;;5033864;28;20404;-62
2021/05/03 08:31:02;;;;;;;18.95;8.60;;;;;;;;;;5034508;28;20025;-62
2021/05/03 08:33:28;;;;;;;18.15;8.80;;;;;;;;;;5034092;28;20025;-62
2021/05/03 08:35:56;;;;;;;17.30;8.48;;;;;;;;;;5033747;28;20436;-61
2021/05/03 08:38:23;;;;;;;17.63;8.48;;;;;;;;;;5033468;28;20446;-63
2021/05/03 08:40:49;;;;;;;20.02;9.50;;;;;;;;;;5031721;28;20477;-64
2021/05/03 08:43:15;;;;;;;20.98;9.38;;;;;;;;;;5032470;28;20025;-64
2021/05/03 08:45:42;;;;;;;17.20;8.90;;;;;;;;;;5032961;28;20033;-65
2021/05/03 08:48:27;;;;;;;18.83;9.40;;;;;;;;;;5041796;28;20373;-65
2021/05/03 08:51:12;;;;;;;17.60;9.07;;;;;;;;;;5051755;28;20456;-60
2021/05/03 08:53:43;;;;;;;19.17;8.80;;;;;;;;;;5053201;28;20025;-63
2021/05/03 08:56:10;;;;;;;17.42;9.45;;;;;;;;;;5053251;28;20016;-54
2021/05/03 08:58:37;;;;;;;16.55;9.02;;;;;;;;;;5053014;28;20062;-61
2021/05/03 09:01:03;;;;;;;18.20;9.55;;;;;;;;;;5048629;28;20017;-60
2021/05/03 09:03:29;;;;;;;17.10;9.18;;;;;;;;;;5031784;28;20084;-61
2021/05/03 09:05:55;;;;;;;19.48;9.50;;;;;;;;;;5032014;28;20026;-61
2021/05/03 09:08:23;;;;;;;18.27;9.77;;;;;;;;;;5032766;28;20025;-59
2021/05/03 09:10:49;;;;;;;18.48;9.27;;;;;;;;;;5031246;28;20022;-55
2021/05/03 09:13:15;;;;;;;21.05;9.30;;;;;;;;;;5032652;28;20090;-62
2021/05/03 09:15:43;;;;;;;19.02;10.13;;;;;;;;;;5031634;28;20142;-60
2021/05/03 09:18:09;;;;;;;18.87;9.83;;;;;;;;;;5032904;28;20343;-59
2021/05/03 09:20:35;;;;;;;18.20;10.70;;;;;;;;;;5031274;28;20267;-56
2021/05/03 09:25:37;;;;;;;16.88;10.07;;;;;;;;;;5032579;28;20122;-61
2021/05/03 09:28:03;;;;;;;19.77;11.35;;;;;;;;;;5032585;28;20017;-61
2021/05/03 09:30:48;;;;;;;18.27;11.30;;;;;;;;;;5032570;28;20025;-63
2021/05/03 09:33:24;;;;;;;18.08;11.10;;;;;;;;;;5032820;28;20344;-64
2021/05/03 09:35:50;;;;;;;19.90;12.20;;;;;;;;;;5032433;28;20104;-63
2021/05/03 09:38:36;;;;;;;18.27;11.23;;;;;;;;;;5033051;28;20049;-65
2021/05/03 09:41:14;;;;;;;19.45;12.93;;;;;;;;;;5032616;28;20477;-63
2021/05/03 09:43:51;;;;;;;19.60;12.45;;;;;;;;;;5024350;28;20022;-72
2021/05/03 09:46:37;;;;;;;18.52;12.00;;;;;;;;;;5032169;28;20243;-71
2021/05/03 09:49:06;;;;;;;17.92;11.30;;;;;;;;;;5032830;28;20032;-71
2021/05/03 09:51:52;;;;;;;20.13;12.75;;;;;;;;;;4679578;28;9999677;-70
2021/05/03 09:54:26;;;;;;;20.77;12.75;;;;;;;;;;5009648;28;20057;-71
2021/05/03 09:57:04;;;;;;;18.70;11.23;;;;;;;;;;5038056;28;20413;-71
2021/05/03 09:59:30;;;;;;;;;;;;;;;;;;5037943;28;20022;-71
2021/05/03 10:02:15;;;;;;;21.17;12.02;;;;;;;;;;5039466;28;19915;-71
2021/05/03 10:04:48;;;;;;;19.08;12.07;;;;;;;;;;5042582;28;20031;-71
2021/05/03 10:07:17;;;;;;;22.13;12.20;;;;;;;;;;5042227;28;20099;-70
2021/05/03 10:09:46;;;;;;;18.13;12.52;;;;;;;;;;5044796;28;20033;-65
2021/05/03 10:12:12;;;;;;;18.50;12.27;;;;;;;;;;5052396;28;20021;-62
2021/05/03 10:14:38;;;;;;;20.08;13.10;;;;;;;;;;5043667;28;20084;-62
2021/05/03 10:17:04;;;;;;;21.63;13.32;;;;;;;;;;5032141;28;20029;-63
2021/05/03 10:19:31;;;;;;;19.10;12.70;;;;;;;;;;5030801;28;20025;-64
2021/05/03 10:21:58;;;;;;;19.48;13.30;;;;;;;;;;5030389;28;20026;-62
2021/05/03 10:24:24;;;;;;;20.77;13.60;;;;;;;;;;5032542;28;20100;-63
2021/05/03 10:26:52;;;;;;;21.75;13.68;;;;;;;;;;5032227;28;20485;-62
2021/05/03 10:29:29;;;;;;;20.67;13.45;;;;;;;;;;5030724;28;20032;-59
2021/05/03 10:31:56;;;;;;;21.92;13.90;;;;;;;;;;5029686;28;20485;-62
2021/05/03 10:34:52;;;;;;;18.88;12.25;;;;;;;;;;5016873;28;20072;-60
2021/05/03 10:37:31;;;;;;;26.85;15.00;;;;;;;;;;5002225;28;20091;-63
2021/05/03 10:40:02;;;;;;;23.30;14.20;;;;;;;;;;5009597;28;20100;-60
2021/05/03 10:42:28;;;;;;;20.35;13.35;;;;;;;;;;5011349;28;20048;-61
2021/05/03 10:45:15;;;;;;;21.17;13.43;;;;;;;;;;5012366;28;20026;-58
2021/05/03 10:47:45;;;;;;;;;;;;;;;;;;;;;
2021/05/03 10:50:44;;;;;;;21.67;14.05;;;;;;;;;;5012194;28;20042;-62
2021/05/03 10:55:59;;;;;;;20.60;14.05;;;;;;;;;;5012589;28;20506;-58
2021/05/03 10:58:25;;;;;;;20.85;14.05;;;;;;;;;;5010931;28;20022;-61
2021/05/03 11:00:59;;;;;;;19.88;13.40;;;;;;;;;;5011857;28;20018;-63
2021/05/03 11:03:43;;;;;;;24.17;14.25;;;;;;;;;;5011117;28;20030;-60
2021/05/03 11:06:10;;;;;;;20.02;13.05;;;;;;;;;;5012760;28;20076;-64
2021/05/03 11:08:35;;;;;;;21.55;13.05;;;;;;;;;;4994548;28;20057;-62
2021/05/03 11:11:09;;;;;;;23.33;13.95;;;5.70;99.90;;;;;;5010475;28;20051;-63
2021/05/03 11:13:41;;;;;;;19.38;14.10;;;13.20;81.20;;;;;;4994645;28;20026;-60
2021/05/03 11:16:28;;;;;;;19.77;13.27;;;13.20;82.70;;;;;;5029976;28;20049;-63
2021/05/03 11:18:56;;;;;;;20.08;12.70;;;13.90;82.70;;;;;;5032162;28;20144;-64
2021/05/03 11:21:48;;;;;;;18.60;13.20;;;13.80;81.20;;;;;;5031347;28;20018;-63
2021/05/03 11:24:44;;;;;;;19.40;13.48;;;13.50;81.30;;;;;;5024421;28;20033;-64
2021/05/03 11:27:18;;;;;;;19.05;13.60;;;13.40;82.40;;;;;;5033374;28;20021;-63
2021/05/03 11:32:11;;;;;;;19.73;14.05;;;13.50;80.80;;;;;;5038653;28;20029;-61
2021/05/03 11:34:54;;;;;;;20.20;13.98;;;13.30;79.50;;;;;;5039689;28;20381;-62
2021/05/03 11:37:29;;;;;;;19.83;14.57;;;13.10;80.30;;;;;;5041195;28;20469;-63
2021/05/03 11:45:15;;;;;;;22.60;13.95;;;12.90;81.30;;;;;;5035164;28;20047;-63
2021/05/03 11:47:42;;;;;;;20.33;13.65;;;12.70;88.80;;;;;;5034852;28;20031;-61
2021/05/03 11:50:09;;;;;;;19.98;13.68;;;12.50;90.40;;;;;;5035289;28;20033;-61
2021/05/03 11:52:37;;;;;;;21.23;14.02;;;12.50;86.00;;;;;;5036553;28;20025;-62
2021/05/03 11:55:11;;;;;;;19.00;14.05;;;12.70;85.90;;;;;;5034890;28;20029;-61
2021/05/03 11:57:41;;;;;;;21.50;13.80;;;;;;;;;;5035599;28;20558;-64
2021/05/03 12:00:09;;;;;;;21.10;14.07;;;;;;;;;;5035551;28;20033;-62
2021/05/03 12:02:35;;;;;;;19.25;13.75;;;;;;;;;;5035928;28;20025;-63
2021/05/03 12:05:10;;;;;;;18.83;13.43;;;13.10;83.30;;;;;;5033488;28;20052;-60
2021/05/03 12:07:39;;;;;;;22.52;14.05;;;13.60;77.40;;;;;;5033114;28;20489;-63
2021/05/03 12:10:08;;;;;;;21.52;13.82;;;13.10;79.10;;;;;;5033547;28;20037;-61
2021/05/03 12:12:37;;;;;;;19.27;14.18;;;;;;;;;;5034827;28;20025;-63
2021/05/03 12:15:06;;;;;;;20.48;13.40;;;;;;;;;;5033787;28;20111;-61
2021/05/03 12:17:32;;;;;;;19.75;14.13;;;;;;;;;;5034917;28;20017;-60
2021/05/03 12:20:07;;;;;;;19.45;13.88;;;;;;;;;;5032202;28;20022;-61
2021/05/03 12:22:34;;;;;;;19.58;13.55;;;;;;;;;;5049790;28;20096;-62
2021/05/03 12:25:03;;;;;;;23.65;15.27;;;;;;;;;;5054878;28;20024;-62
2021/05/03 12:27:30;;;;;;;20.13;14.57;;;;;;;;;;5055020;28;20028;-62
2021/05/03 12:29:57;;;;;;;19.15;13.65;;;;;;;;;;5054826;28;20051;-62
2021/05/03 12:32:23;;;;;;;20.30;13.82;;;;;;;;;;5053201;28;20048;-59
2021/05/03 12:34:51;;;;;;;18.85;14.38;;;;;;;;;;5054502;28;20035;-58
2021/05/03 12:37:21;;;;;;;19.95;14.43;;;;;;;;;;5053562;28;20505;-62
2021/05/03 12:39:56;;;;;;;19.60;14.10;;;;;;;;;;5054201;28;20520;-60
2021/05/03 12:42:22;;;;;;;20.38;14.70;;;;;;;;;;5054381;28;20060;-61
2021/05/03 12:44:52;;;;;;;22.15;15.02;;;;;;;;;;5053448;28;20021;-62
2021/05/03 12:50:22;;;;;;;21.80;14.38;;;;;;;;;;5075289;22;20121;-64
2021/05/03 13:03:58;;;;;;;20.38;14.98;;;;;;;;;;5023476;28;20026;-61
2021/05/03 13:09:29;;;;;;;21.92;15.20;;;;;;;;;;5011706;28;20099;-60
2021/05/03 13:29:08;;;;;;;22.92;15.95;;;;;;;;;;5032389;28;20037;-61
2021/05/03 13:31:34;;;;;;;22.15;15.48;;;;;;;;;;5029826;28;20053;-61
2021/05/03 13:34:01;;;;;;;20.25;15.63;;;;;;;;;;5032171;28;20025;-59
2021/05/03 13:36:28;;;;;;;20.23;14.40;;;;;;;;;;5032472;28;20027;-61
2021/05/03 13:38:54;;;;;;;21.58;15.25;;;;;;;;;;5032120;28;20022;-58
2021/05/03 13:41:20;;;;;;;20.45;15.05;;;;;;;;;;5031250;28;20087;-61
2021/05/03 13:43:46;;;;;;;18.95;14.23;;;;;;;;;;5032171;28;20029;-61
2021/05/03 13:46:12;;;;;;;21.35;15.80;;;;;;;;;;5032712;28;20028;-59
2021/05/03 13:48:40;;;;;;;18.92;14.00;;;;;;;;;;5032123;28;20021;-61
2021/05/03 13:51:07;;;;;;;18.83;14.27;;;;;;;;;;5032228;28;20052;-59
2021/05/03 13:53:34;;;;;;;18.92;13.63;;;;;;;;;;5031692;28;20024;-59
2021/05/03 13:56:00;;;;;;;21.15;14.32;;;;;;;;;;5030954;28;20021;-63
2021/05/03 13:58:26;;;;;;;19.63;13.77;;;;;;;;;;5031895;28;20060;-62
2021/05/03 14:00:52;;;;;;;19.58;14.40;;;;;;;;;;5030536;28;20021;-63
2021/05/03 14:03:18;;;;;;;20.30;12.68;;;;;;;;;;5032055;28;20037;-62
2021/05/03 14:05:44;;;;;;;19.15;13.68;;;;;;;;;;5032115;28;20026;-62
2021/05/03 14:08:10;;;;;;;20.60;14.20;;;;;;;;;;5031845;28;20171;-59
2021/05/03 14:10:36;;;;;;;18.13;13.02;;;;;;;;;;5031550;28;20030;-60
2021/05/03 14:13:04;;;;;;;20.15;13.38;;;;;;;;;;5040761;28;20031;-61
2021/05/03 14:15:32;;;;;;;18.15;12.93;;;;;;;;;;5041112;28;20036;-62
2021/05/03 14:17:58;;;;;;;18.25;13.50;;;;;;;;;;5040515;28;20021;-60
2021/05/03 14:20:25;;;;;;;18.35;13.57;;;;;;;;;;5041831;28;20527;-61
2021/05/03 14:22:51;;;;;;;18.27;13.30;;;;;;;;;;5040228;28;20083;-63
2021/05/03 14:25:18;;;;;;;19.75;13.57;;;;;;;;;;5040358;28;20033;-62
2021/05/03 14:27:45;;;;;;;19.27;13.80;;;;;;;;;;5041844;28;20415;-63
2021/05/03 14:30:58;;;;;;;19.77;13.97;;;;;;;;;;4339360;28;10000731;-57
2021/05/03 14:33:51;;;;;;;19.77;14.48;;;;;;;;;;5025707;28;20408;-58
2021/05/03 14:35:52;;;;;;;20.55;13.90;;;;;;;;;;5027863;28;20041;-59
2021/05/03 14:38:19;;;;;;;20.13;14.70;;;;;;;;;;5035833;28;20508;-56
2021/05/03 14:40:45;;;;;;;19.02;13.52;;;;;;;;;;5038273;28;20029;-60
2021/05/03 14:43:11;;;;;;;19.73;13.13;;;;;;;;;;5038960;28;20129;-58
2021/05/03 14:46:29;;;;;;;18.20;13.60;;;;;;;;;;5037198;28;20029;-61
2021/05/03 14:48:39;;;;;;;18.23;13.27;;;;;;;;;;5032566;28;20579;-59
2021/05/03 14:51:31;;;;;;;19.33;13.80;;;;;;;;;;5034664;28;20025;-61
2021/05/03 14:56:23;;;;;;;21.42;14.40;;;;;;;;;;5029938;28;20080;-59
2021/05/03 14:58:49;;;;;;;19.45;13.88;;;;;;;;;;5032302;28;20425;-58
2021/05/03 15:01:16;;;;;;;22.50;14.30;;;;;;;;;;5030797;28;20037;-61
2021/05/03 15:03:42;;;;;;;21.30;14.35;;;;;;;;;;5033407;28;20022;-61
2021/05/03 15:06:11;;;;;;;19.83;13.80;;;;;;;;;;5035623;28;20026;-60
2021/05/03 15:08:38;;;;;;;19.95;13.43;;;;;;;;;;5039630;28;20032;-59
2021/05/03 15:11:04;;;;;;;19.92;14.70;;;;;;;;;;5037925;28;20444;-57